Harper, Kentucky
Current Conditions -  °F | °C
As of 4:53 PM on Wednesday 28 Jan 2015 (Local Time) from KJKL Reporting Station
Clear Clear  
Wind Chill: 36°   Ceiling: Unl
Heat Index: 36°   Visibility: 10mi
Dew Point: 17°   Wind: 0mph
Humidity: 46%   Direction: NA
Pressure: 30.26"   Gusts: NA
Location:  37.7261°N, 83.0786°W
Report Text: KJKL 282153Z AUTO 00000KT 10SM CLR 02/M08 A3026 RMK AO2 SLP262 T00221083
Loading
Personal Weather Stations






























Interactive Weather Map New forecast layout! Learn more

10-Day Weather Forecast

Advertisements
Track Severe Weather on mobile